Time;durP1;ratioP1;P1;durP2;ratioP2;P2;SDS_P1;SDS_P2;PMS_P1;PMS_P2;Temp;Humidity;BMP_temperature;BMP_pressure;BME280_temperature;BME280_humidity;BME280_pressure;Samples;Min_cycle;Max_cycle;Signal;HPM_P1;HPM_P2
2021/05/26 00:02:26;;;;;;;20.00;7.82;;;;;;;18.98;54.33;100680.72;4901495;29;20080;-64
2021/05/26 00:04:53;;;;;;;16.60;7.43;;;;;;;18.86;54.47;100650.25;4918153;29;20088;-63
2021/05/26 00:07:20;;;;;;;15.80;6.78;;;;;;;18.97;54.80;100664.06;4917939;29;20052;-66
2021/05/26 00:09:47;;;;;;;15.88;5.05;;;;;;;19.18;54.53;100688.53;4918577;29;20435;-59
2021/05/26 00:12:13;;;;;;;17.42;5.65;;;;;;;19.01;54.30;100670.72;4917422;29;20099;-61
2021/05/26 00:14:40;;;;;;;17.95;5.45;;;;;;;19.20;54.55;100690.19;4917854;29;20095;-65
2021/05/26 00:17:07;;;;;;;13.52;5.13;;;;;;;19.22;54.49;100682.19;4917936;29;20135;-63
2021/05/26 00:19:35;;;;;;;18.73;5.93;;;;;;;19.12;54.31;100669.22;4917901;29;20080;-61
2021/05/26 00:22:01;;;;;;;12.68;4.38;;;;;;;18.78;54.55;100621.97;4917894;29;20091;-62
2021/05/26 00:24:28;;;;;;;22.83;6.85;;;;;;;18.40;54.75;100575.38;4917631;29;20607;-60
2021/05/26 00:26:55;;;;;;;13.30;5.60;;;;;;;18.92;54.79;100648.09;4917520;29;20083;-62
2021/05/26 00:29:22;;;;;;;16.30;5.78;;;;;;;19.04;54.71;100659.59;4917622;29;20569;-62
2021/05/26 00:31:49;;;;;;;23.60;7.28;;;;;;;19.07;54.38;100656.06;4917401;29;20115;-62
2021/05/26 00:34:16;;;;;;;12.52;5.80;;;;;;;19.02;54.11;100652.59;4917488;29;20087;-61
2021/05/26 00:36:42;;;;;;;12.65;4.75;;;;;;;19.06;54.22;100662.88;4917453;29;20048;-59
2021/05/26 00:39:09;;;;;;;17.67;5.65;;;;;;;19.03;54.32;100663.56;4917788;29;20127;-60
2021/05/26 00:41:36;;;;;;;18.08;5.10;;;;;;;18.93;54.54;100650.56;4917335;29;20076;-60
2021/05/26 00:44:04;;;;;;;16.23;5.60;;;;;;;18.66;55.07;100620.59;4917502;29;20100;-60
2021/05/26 00:46:39;;;;;;;11.93;4.95;;;;;;;18.83;55.33;100645.25;4916082;29;20523;-60
2021/05/26 00:49:06;;;;;;;15.93;5.50;;;;;;;18.81;55.50;100656.09;4917239;29;20545;-61
2021/05/26 00:51:33;;;;;;;13.73;5.35;;;;;;;18.76;55.68;100646.94;4917348;29;20063;-60
2021/05/26 00:53:59;;;;;;;14.80;5.25;;;;;;;18.72;55.79;100641.13;4917528;29;20130;-60
2021/05/26 00:56:26;;;;;;;16.23;4.97;;;;;;;18.74;55.80;100637.97;4917480;29;20072;-59
2021/05/26 00:58:53;;;;;;;19.10;5.97;;;;;;;18.77;55.40;100626.81;4917213;29;20131;-60
2021/05/26 01:01:20;;;;;;;19.10;6.07;;;;;;;18.89;55.26;100635.44;4917633;29;20052;-61
2021/05/26 01:03:47;;;;;;;24.77;7.00;;;;;;;18.84;55.38;100621.47;4917265;29;20516;-60
2021/05/26 01:06:14;;;;;;;15.90;5.53;;;;;;;18.89;55.39;100626.94;4916475;29;20094;-60
2021/05/26 01:08:41;;;;;;;19.25;5.78;;;;;;;18.88;55.17;100628.13;4916852;29;20060;-61
2021/05/26 01:11:09;;;;;;;16.15;5.82;;;;;;;18.85;55.48;100628.78;4916762;29;20048;-60
2021/05/26 01:13:36;;;;;;;16.95;6.13;;;;;;;18.85;55.59;100628.78;4916618;29;20052;-60
2021/05/26 01:16:03;;;;;;;15.70;5.30;;;;;;;18.76;55.57;100619.47;4917053;29;20076;-61
2021/05/26 01:18:32;;;;;;;25.08;7.50;;;;;;;18.76;55.48;100613.00;4916457;29;20076;-61
2021/05/26 01:21:02;;;;;;;17.33;5.35;;;;;;;18.79;55.22;100624.47;4900256;29;20052;-60
2021/05/26 01:23:29;;;;;;;16.65;5.95;;;;;;;18.79;55.55;100623.63;4916694;29;20099;-59
2021/05/26 01:25:58;;;;;;;15.88;6.10;;;;;;;18.74;55.51;100623.81;4915891;29;20139;-64
2021/05/26 01:28:26;;;;;;;15.85;6.43;;;;;;;18.66;55.47;100611.28;4899706;29;20135;-63
2021/05/26 01:30:54;;;;;;;18.27;6.53;;;;;;;18.50;56.27;100619.47;4916819;29;20076;-62
2021/05/26 01:33:22;;;;;;;21.60;6.70;;;;;;;18.34;56.53;100613.47;4916502;29;20150;-63
2021/05/26 01:35:49;;;;;;;13.27;6.47;;;;;;;18.27;57.02;100620.78;4916370;29;20658;-67
2021/05/26 01:38:21;;;;;;;20.83;6.50;;;;;;;17.95;57.68;100577.69;4916595;29;20135;-62
2021/05/26 01:40:48;;;;;;;13.70;5.55;;;;;;;18.05;58.34;100607.59;4916495;29;20079;-65
2021/05/26 01:43:16;;;;;;;19.27;6.43;;;;;;;17.89;58.44;100595.94;4916224;29;20056;-61
2021/05/26 01:45:43;;;;;;;17.70;6.10;;;;;;;17.77;58.27;100569.16;4915311;29;20139;-67
2021/05/26 01:48:10;;;;;;;13.98;6.38;;;;;;;17.98;58.00;100605.25;4916609;29;20092;-63
2021/05/26 01:50:37;;;;;;;24.42;6.68;;;;;;;17.93;58.12;100582.81;4916428;29;20048;-64
2021/05/26 01:53:06;;;;;;;17.88;5.85;;;;;;;18.05;57.84;100597.16;4916897;29;20080;-69
2021/05/26 01:55:34;;;;;;;22.00;6.90;;;;;;;18.17;57.55;100611.44;4916656;29;20115;-68
2021/05/26 01:58:02;;;;;;;13.10;6.18;;;;;;;18.17;57.46;100602.97;4899439;29;20082;-68
2021/05/26 02:00:29;;;;;;;20.70;6.80;;;;;;;18.19;57.79;100602.66;4916529;29;20063;-68
2021/05/26 02:02:55;;;;;;;22.15;7.40;;;;;;;18.20;57.27;100607.13;4916565;29;20107;-71
2021/05/26 02:05:23;;;;;;;13.57;6.15;;;;;;;18.20;57.44;100609.97;4899536;29;20109;-71
2021/05/26 02:07:52;;;;;;;24.95;6.63;;;;;;;17.83;57.86;100561.38;4916248;29;20056;-78
2021/05/26 02:12:20;;;;;;;27.30;6.97;;;;;;;18.16;57.55;100597.66;4916534;29;20120;-61
2021/05/26 02:13:07;;;;;;;20.40;7.28;;;;;;;18.15;57.41;100605.31;4916081;29;20151;-59
2021/05/26 02:15:33;;;;;;;22.27;6.97;;;;;;;18.13;57.75;100596.31;4916511;29;20108;-60
2021/05/26 02:18:00;;;;;;;22.92;7.03;;;;;;;18.06;57.82;100595.16;4916388;29;20048;-57
2021/05/26 02:20:28;;;;;;;15.52;6.53;;;;;;;18.01;57.64;100596.13;4916462;29;20060;-57
2021/05/26 02:22:54;;;;;;;21.98;6.50;;;;;;;17.98;58.00;100599.59;4916291;29;20226;-56
2021/05/26 02:25:21;;;;;;;21.92;6.47;;;;;;;17.99;58.19;100598.47;4916419;29;20048;-57
2021/05/26 02:27:48;;;;;;;17.00;6.45;;;;;;;17.93;57.74;100596.94;4916243;29;20056;-59
2021/05/26 02:30:16;;;;;;;17.85;6.63;;;;;;;17.90;58.13;100598.44;4916345;29;20099;-59
2021/05/26 02:32:43;;;;;;;19.43;7.37;;;;;;;17.88;57.99;100606.44;4915908;29;20609;-59
2021/05/26 02:35:11;;;;;;;18.88;6.97;;;;;;;17.76;58.33;100590.09;4916013;29;20048;-59
2021/05/26 02:37:39;;;;;;;19.63;7.30;;;;;;;17.84;58.16;100621.50;4919803;29;20442;-59
2021/05/26 02:40:07;;;;;;;15.00;6.35;;;;;;;17.81;58.52;100610.88;4919945;29;20095;-59
2021/05/26 02:42:34;;;;;;;19.33;7.18;;;;;;;17.77;58.25;100611.53;4919564;29;20135;-59
2021/05/26 02:45:04;;;;;;;20.50;7.73;;;;;;;17.75;58.70;100608.19;4902835;29;20052;-59
2021/05/26 02:47:31;;;;;;;16.73;7.32;;;;;;;17.66;58.63;100610.13;4919703;29;20080;-60
2021/05/26 02:49:58;;;;;;;20.23;7.97;;;;;;;17.69;58.72;100612.31;4919345;29;20081;-60
2021/05/26 02:52:25;;;;;;;20.53;6.20;;;;;;;17.66;58.66;100609.31;4919580;29;20075;-59
2021/05/26 02:54:51;;;;;;;17.97;6.30;;;;;;;17.62;58.75;100619.59;4919329;29;20092;-60
2021/05/26 02:57:20;;;;;;;19.50;6.77;;;;;;;17.42;59.15;100587.94;4919526;29;20131;-63
2021/05/26 02:59:47;;;;;;;24.53;8.20;;;;;;;17.59;58.85;100615.41;4919300;29;20048;-63
2021/05/26 03:02:14;;;;;;;21.67;7.30;;;;;;;17.52;59.35;100615.91;4919343;29;20139;-62
2021/05/26 03:04:41;;;;;;;24.10;7.50;;;;;;;17.56;59.16;100627.38;4919290;29;20139;-62
2021/05/26 03:07:08;;;;;;;16.53;7.23;;;;;;;17.41;59.43;100599.59;4919052;29;20139;-62
2021/05/26 03:09:39;;;;;;;21.33;7.20;;;;;;;17.53;59.04;100625.19;4919111;29;20052;-62
2021/05/26 03:12:06;;;;;;;17.73;6.03;;;;;;;17.52;59.36;100627.19;4919042;29;20111;-61
2021/05/26 03:14:33;;;;;;;20.02;7.30;;;;;;;17.32;59.40;100581.75;4919391;29;20055;-61
2021/05/26 03:17:00;;;;;;;18.23;6.50;;;;;;;17.48;59.73;100622.53;4902078;29;20532;-63
2021/05/26 03:19:27;;;;;;;20.35;6.90;;;;;;;17.43;59.33;100623.47;4919137;29;20082;-66
2021/05/26 03:21:54;;;;;;;18.17;6.43;;;;;;;17.41;59.48;100631.47;4918622;29;20429;-64
2021/05/26 03:24:21;;;;;;;20.67;7.40;;;;;;;17.20;59.68;100582.38;4918851;29;20131;-60
2021/05/26 03:26:48;;;;;;;21.83;8.23;;;;;;;17.41;59.61;100613.69;4918826;29;20052;-61
2021/05/26 03:29:15;;;;;;;24.70;6.90;;;;;;;17.15;59.87;100571.22;4918917;29;20127;-64
2021/05/26 03:31:43;;;;;;;18.23;6.78;;;;;;;17.40;59.98;100612.00;4919462;29;20409;-63
2021/05/26 03:34:09;;;;;;;20.73;6.53;;;;;;;17.40;59.49;100620.47;4918620;29;20204;-68
2021/05/26 03:36:40;;;;;;;22.43;6.77;;;;;;;17.26;59.65;100600.81;4918948;29;20083;-69
2021/05/26 03:39:08;;;;;;;20.97;7.40;;;;;;;17.37;59.82;100618.34;4917608;29;20135;-77
2021/05/26 03:41:36;;;;;;;16.70;8.23;;;;;;;17.16;59.82;100587.00;4919146;29;20059;-73
2021/05/26 03:44:03;;;;;;;24.30;7.53;;;;;;;17.35;59.78;100612.16;4919039;29;20139;-74
2021/05/26 03:46:30;;;;;;;22.63;6.27;;;;;;;17.23;59.73;100595.81;4918953;29;20139;-74
2021/05/26 03:48:57;;;;;;;24.23;7.28;;;;;;;17.21;59.95;100584.88;4917748;29;20144;-70
2021/05/26 03:51:24;;;;;;;21.57;7.33;;;;;;;17.30;59.99;100601.84;4918426;29;20052;-69
2021/05/26 03:53:53;;;;;;;29.20;8.53;;;;;;;17.28;59.85;100593.69;4918331;29;20135;-71
2021/05/26 03:56:20;;;;;;;23.47;7.20;;;;;;;17.22;59.86;100578.06;4918376;29;20059;-73
2021/05/26 03:58:47;;;;;;;20.63;8.60;;;;;;;17.06;59.97;100557.09;4918878;29;20074;-69
2021/05/26 04:01:14;;;;;;;21.27;7.20;;;;;;;17.22;60.20;100575.25;4918121;29;20056;-69
2021/05/26 04:03:41;;;;;;;24.73;8.37;;;;;;;17.22;60.28;100577.22;4918027;29;20048;-69
2021/05/26 04:06:09;;;;;;;19.20;7.67;;;;;;;17.21;60.16;100573.59;4918130;29;20079;-71
2021/05/26 04:08:37;;;;;;;20.43;7.97;;;;;;;16.99;59.96;100551.06;4917820;29;20063;-66
2021/05/26 04:11:05;;;;;;;22.00;8.47;;;;;;;17.13;60.25;100580.03;4918288;29;20103;-67
2021/05/26 04:13:31;;;;;;;21.80;7.73;;;;;;;16.96;60.01;100565.84;4918008;29;20092;-66
2021/05/26 04:15:58;;;;;;;22.27;7.40;;;;;;;17.03;60.04;100597.22;4917805;29;20080;-68
2021/05/26 04:18:25;;;;;;;26.57;9.30;;;;;;;16.96;60.45;100592.03;4901229;29;20094;-69
2021/05/26 04:20:52;;;;;;;23.33;7.57;;;;;;;16.89;60.55;100590.81;4916672;29;20080;-69
2021/05/26 04:23:19;;;;;;;24.53;9.07;;;;;;;16.80;60.55;100582.31;4917978;29;20052;-68
2021/05/26 04:25:50;;;;;;;31.57;7.93;;;;;;;16.83;60.77;100581.69;4917640;29;20044;-70
2021/05/26 04:28:19;;;;;;;23.47;7.90;;;;;;;16.80;60.49;100580.31;4917857;29;20048;-66
2021/05/26 04:30:47;;;;;;;22.87;7.50;;;;;;;16.79;60.32;100589.94;4917717;29;20076;-65
2021/05/26 04:33:14;;;;;;;21.37;7.83;;;;;;;16.79;60.56;100575.03;4917715;29;20512;-58
2021/05/26 04:35:41;;;;;;;19.37;7.23;;;;;;;16.71;60.57;100568.09;4916288;29;20087;-58
2021/05/26 04:38:08;;;;;;;27.53;8.83;;;;;;;16.65;60.42;100551.66;4917730;29;20119;-65
2021/05/26 04:40:34;;;;;;;25.57;7.23;;;;;;;16.81;60.15;100590.44;4917536;29;20163;-65
2021/05/26 04:43:01;;;;;;;24.23;7.00;;;;;;;16.76;60.14;100587.75;4917238;29;20516;-65
2021/05/26 04:45:29;;;;;;;19.07;6.73;;;;;;;16.75;60.41;100590.88;4917611;29;20358;-65
2021/05/26 04:47:59;;;;;;;29.23;7.78;;;;;;;16.11;60.39;100512.13;4917143;29;20059;-65
2021/05/26 04:50:26;;;;;;;28.30;7.20;;;;;;;16.67;60.13;100589.66;4917365;29;20088;-65
2021/05/26 04:52:53;;;;;;;21.40;6.43;;;;;;;16.68;59.97;100596.94;4917130;29;20079;-66
2021/05/26 04:55:20;;;;;;;27.67;8.00;;;;;;;16.68;59.96;100596.13;4917277;29;20104;-68
2021/05/26 04:57:57;;;;;;;14.40;6.03;;;;;;;16.64;60.06;100584.66;4915728;29;20079;-68
2021/05/26 05:00:26;;;;;;;31.57;8.33;;;;;;;16.65;60.29;100588.28;4917300;29;20044;-63
2021/05/26 05:02:53;;;;;;;23.57;6.77;;;;;;;16.63;59.99;100591.44;4917062;29;20177;-61
2021/05/26 05:05:20;;;;;;;26.90;7.20;;;;;;;16.60;60.34;100597.72;4917004;29;20095;-58
2021/05/26 05:07:47;;;;;;;27.07;7.37;;;;;;;16.42;60.28;100576.19;4917266;29;20083;-63
2021/05/26 05:10:14;;;;;;;21.30;7.10;;;;;;;16.58;60.05;100598.06;4916838;29;20140;-58
2021/05/26 05:12:42;;;;;;;19.97;6.53;;;;;;;16.35;60.10;100577.47;4917005;29;20064;-57
2021/05/26 05:15:09;;;;;;;23.00;8.23;;;;;;;16.52;60.23;100616.25;4916755;29;20044;-57
2021/05/26 05:17:36;;;;;;;24.17;6.57;;;;;;;16.50;60.12;100621.34;4899962;29;20052;-59
2021/05/26 05:20:04;;;;;;;20.60;6.13;;;;;;;16.50;60.06;100617.72;4916976;29;20048;-58
2021/05/26 05:22:30;;;;;;;27.20;7.30;;;;;;;16.42;60.33;100610.84;4916915;29;20072;-58
2021/05/26 05:24:58;;;;;;;18.00;6.17;;;;;;;16.42;60.14;100605.22;4916678;29;20060;-59
2021/05/26 05:27:25;;;;;;;24.10;6.90;;;;;;;16.46;60.26;100613.88;4916518;29;20076;-58
2021/05/26 05:29:51;;;;;;;19.00;6.30;;;;;;;16.44;60.09;100619.81;4915670;29;20055;-63
2021/05/26 05:32:18;;;;;;;25.77;7.40;;;;;;;16.27;59.99;100578.25;4916707;29;20055;-57
2021/05/26 05:34:45;;;;;;;17.60;6.87;;;;;;;16.28;60.21;100582.72;4916604;29;20052;-60
2021/05/26 05:37:12;;;;;;;17.43;5.63;;;;;;;16.54;60.33;100615.91;4916477;29;20111;-50
2021/05/26 05:39:39;;;;;;;18.00;5.80;;;;;;;16.66;59.71;100619.00;4916269;29;20134;-49
2021/05/26 05:42:06;;;;;;;30.90;7.10;;;;;;;16.65;60.19;100600.44;4916303;29;20082;-57
2021/05/26 05:44:33;;;;;;;17.27;6.30;;;;;;;16.85;60.00;100606.72;4916370;29;20048;-54
2021/05/26 05:47:00;;;;;;;16.90;7.03;;;;;;;16.93;59.70;100594.69;4916514;29;20081;-63
2021/05/26 05:49:27;;;;;;;23.47;6.77;;;;;;;17.15;59.40;100611.56;4916145;29;20545;-58
2021/05/26 05:51:54;;;;;;;19.30;6.20;;;;;;;17.29;59.51;100603.81;4916717;29;20130;-56
2021/05/26 05:54:21;;;;;;;17.33;6.10;;;;;;;17.51;59.21;100600.13;4916400;29;20148;-57
2021/05/26 05:56:48;;;;;;;24.30;6.97;;;;;;;17.44;58.75;100563.06;4916248;29;20072;-57
2021/05/26 05:59:15;;;;;;;16.03;6.47;;;;;;;17.86;58.47;100607.91;4916300;29;20151;-58
2021/05/26 06:01:41;;;;;;;22.60;6.15;;;;;;;17.99;58.31;100616.25;4915367;29;20059;-58
2021/05/26 06:04:08;;;;;;;19.23;5.72;;;;;;;18.03;58.17;100593.81;4916065;29;20056;-58
2021/05/26 06:06:36;;;;;;;18.73;5.63;;;;;;;18.32;57.82;100621.44;4898934;29;20144;-57
2021/05/26 06:09:04;;;;;;;19.42;6.05;;;;;;;18.52;57.53;100622.78;4916176;29;20055;-57
2021/05/26 06:11:33;;;;;;;19.10;5.97;;;;;;;18.75;56.89;100623.47;4918098;29;20139;-58
2021/05/26 06:14:06;;;;;;;16.85;6.25;;;;;;;18.91;56.51;100595.50;4919669;29;20056;-59
2021/05/26 06:16:33;;;;;;;18.45;6.50;;;;;;;19.15;56.20;100609.09;4919832;29;20056;-58
2021/05/26 06:19:01;;;;;;;24.60;6.40;;;;;;;19.28;56.05;100621.38;4919825;29;20088;-59
2021/05/26 06:21:28;;;;;;;17.35;6.93;;;;;;;19.34;56.09;100622.84;4919801;29;20052;-58
2021/05/26 06:23:55;;;;;;;14.70;5.68;;;;;;;19.27;56.04;100622.53;4919557;29;20048;-58
2021/05/26 06:26:22;;;;;;;16.17;7.97;;;;;;;18.84;56.48;100542.25;4919850;29;20099;-58
2021/05/26 06:28:49;;;;;;;20.83;7.80;;;;;;;19.44;56.11;100628.16;4919795;29;20122;-59
2021/05/26 06:31:16;;;;;;;22.23;7.65;;;;;;;19.49;55.81;100630.81;4920001;29;20139;-59
2021/05/26 06:33:43;;;;;;;19.65;6.53;;;;;;;19.51;55.74;100616.31;4919772;29;20079;-58
2021/05/26 06:36:11;;;;;;;19.13;6.53;;;;;;;19.75;55.63;100632.72;4919407;29;20138;-59
2021/05/26 06:38:39;;;;;;;18.30;7.53;;;;;;;19.87;55.41;100632.84;4919477;29;20505;-57
2021/05/26 06:41:06;;;;;;;23.27;8.02;;;;;;;20.07;55.03;100637.72;4919970;29;20123;-58
2021/05/26 06:43:33;;;;;;;19.90;8.65;;;;;;;20.18;54.53;100629.66;4919313;29;20055;-58
2021/05/26 06:46:00;;;;;;;20.25;6.97;;;;;;;20.38;54.42;100632.88;4919157;29;20048;-59
2021/05/26 06:48:27;;;;;;;22.60;8.60;;;;;;;20.73;54.09;100631.41;4919211;29;20052;-59
2021/05/26 06:50:54;;;;;;;18.95;7.38;;;;;;;20.79;53.32;100563.94;4918995;29;20087;-60
2021/05/26 06:53:21;;;;;;;22.10;8.65;;;;;;;21.47;52.75;100629.69;4919340;29;20556;-60
2021/05/26 06:55:48;;;;;;;22.65;7.65;;;;;;;21.82;52.08;100623.56;4919169;29;20080;-58
2021/05/26 06:58:15;;;;;;;16.77;7.18;;;;;;;22.19;51.17;100635.78;4918956;29;20140;-59
2021/05/26 07:00:42;;;;;;;27.45;7.88;;;;;;;22.48;50.91;100637.50;4919362;29;20052;-59
2021/05/26 07:03:09;;;;;;;24.50;7.93;;;;;;;22.60;50.28;100630.13;4918665;29;20052;-59
2021/05/26 07:05:36;;;;;;;19.42;7.63;;;;;;;22.72;50.65;100632.91;4918905;29;20056;-60
2021/05/26 07:08:04;;;;;;;19.98;6.47;;;;;;;22.90;50.17;100627.75;4918997;29;20409;-60
2021/05/26 07:10:31;;;;;;;23.73;9.43;;;;;;;22.58;49.69;100547.13;4902234;29;20282;-59
2021/05/26 07:12:58;;;;;;;19.67;8.40;;;;;;;23.33;49.48;100626.16;4918722;29;20091;-58
2021/05/26 07:15:25;;;;;;;17.30;8.25;;;;;;;23.53;48.71;100613.66;4919213;29;20052;-59
2021/05/26 07:17:54;;;;;;;20.83;7.63;;;;;;;23.84;48.51;100641.38;4918750;29;20100;-58
2021/05/26 07:20:23;;;;;;;18.02;8.65;;;;;;;23.95;48.50;100629.41;4902035;29;20052;-59
2021/05/26 07:22:50;;;;;;;18.10;7.85;;;;;;;24.22;48.11;100633.31;4917709;29;20048;-59
2021/05/26 07:25:17;;;;;;;14.48;7.97;;;;;;;24.29;47.31;100616.38;4919146;29;20465;-59
2021/05/26 07:27:44;;;;;;;19.48;7.93;;;;;;;24.57;47.40;100633.34;4918986;29;20127;-59
2021/05/26 07:30:11;;;;;;;16.00;8.23;;;;;;;24.51;46.69;100589.16;4918805;29;20087;-60
2021/05/26 07:32:38;;;;;;;18.75;7.72;;;;;;;24.76;46.41;100609.69;4918925;29;20078;-60
2021/05/26 07:35:06;;;;;;;21.38;7.63;;;;;;;24.94;46.02;100627.19;4918759;29;20056;-60
2021/05/26 07:37:33;;;;;;;19.05;7.85;;;;;;;24.88;45.64;100637.25;4918877;29;20048;-59
2021/05/26 07:40:00;;;;;;;20.58;7.65;;;;;;;24.70;45.57;100632.00;4918821;29;20048;-60
2021/05/26 07:42:27;;;;;;;22.63;8.05;;;;;;;24.59;46.06;100633.81;4918467;29;20079;-59
2021/05/26 07:44:54;;;;;;;21.80;7.85;;;;;;;24.48;45.99;100615.59;4918580;29;20123;-60
2021/05/26 07:47:21;;;;;;;19.88;7.15;;;;;;;24.56;46.17;100631.69;4918189;29;20056;-60
2021/05/26 07:49:47;;;;;;;26.38;8.88;;;;;;;24.64;45.88;100633.50;4918366;29;20183;-60
2021/05/26 07:52:19;;;;;;;14.18;7.35;;;;;;;24.64;45.47;100630.63;4918233;29;20127;-60
2021/05/26 07:54:49;;;;;;;22.30;7.35;;;;;;;24.81;45.11;100620.81;4918531;29;20079;-60
2021/05/26 07:57:16;;;;;;;16.20;7.53;;;;;;;24.79;44.96;100600.38;4918169;29;20060;-60
2021/05/26 07:59:45;;;;;;;15.98;6.22;;;;;;;25.04;44.37;100620.88;4918295;29;20048;-59
2021/05/26 08:02:12;;;;;;;16.00;6.50;;;;;;;25.13;43.85;100620.66;4918942;29;20099;-59
2021/05/26 08:04:40;;;;;;;14.20;6.20;;;;;;;25.14;43.89;100586.00;4918252;29;20107;-59
2021/05/26 08:07:10;;;;;;;14.75;5.43;;;;;;;25.50;43.70;100598.94;4918552;29;20048;-58
2021/05/26 08:09:38;;;;;;;16.45;6.97;;;;;;;25.93;43.09;100622.56;4918207;29;20048;-59
2021/05/26 08:12:08;;;;;;;13.27;5.45;;;;;;;25.96;42.58;100618.13;4917789;29;20139;-59
2021/05/26 08:14:36;;;;;;;13.30;5.57;;;;;;;26.04;42.15;100621.91;4917457;29;20084;-58
2021/05/26 08:17:04;;;;;;;18.55;5.80;;;;;;;25.67;42.09;100562.41;4916528;29;20103;-59
2021/05/26 08:19:32;;;;;;;12.20;6.15;;;;;;;25.99;42.09;100609.59;4900501;29;20056;-60
2021/05/26 08:21:59;;;;;;;12.68;5.32;;;;;;;26.29;41.79;100623.13;4917660;29;20048;-60
2021/05/26 08:24:26;;;;;;;15.70;6.22;;;;;;;26.69;41.25;100625.34;4900902;29;20134;-58
2021/05/26 08:26:53;;;;;;;19.13;5.88;;;;;;;26.68;41.09;100597.94;4917875;29;20459;-59
2021/05/26 08:29:21;;;;;;;18.23;6.22;;;;;;;27.01;40.87;100632.69;4917425;29;20088;-58
2021/05/26 08:31:47;;;;;;;14.75;5.65;;;;;;;27.09;40.58;100626.69;4918092;29;20144;-59
2021/05/26 08:34:14;;;;;;;11.13;5.28;;;;;;;27.14;40.36;100609.13;4917132;29;20064;-59
2021/05/26 08:36:41;;;;;;;13.00;5.80;;;;;;;27.17;40.34;100619.81;4917624;29;20044;-59
2021/05/26 08:39:08;;;;;;;13.90;5.72;;;;;;;27.08;39.93;100586.94;4918731;29;20111;-60
2021/05/26 08:41:36;;;;;;;16.17;4.78;;;;;;;27.42;39.61;100633.63;4917512;29;20090;-59
2021/05/26 08:44:05;;;;;;;12.43;5.72;;;;;;;27.32;39.45;100628.59;4916870;29;20055;-59
2021/05/26 08:46:35;;;;;;;18.08;5.63;;;;;;;27.32;39.32;100623.69;4917328;29;20123;-60
2021/05/26 08:49:03;;;;;;;12.43;5.15;;;;;;;27.62;38.99;100623.59;4917600;29;20593;-60
2021/05/26 08:51:31;;;;;;;15.18;5.47;;;;;;;28.05;38.50;100628.91;4917303;29;20048;-59
2021/05/26 08:53:58;;;;;;;12.88;5.03;;;;;;;28.44;38.21;100625.50;4917474;29;20076;-59
2021/05/26 08:56:25;;;;;;;13.25;4.15;;;;;;;28.68;37.92;100612.50;4917400;29;20048;-60
2021/05/26 08:58:57;;;;;;;11.02;4.60;;;;;;;29.02;36.61;100615.94;4917151;29;20079;-59
2021/05/26 09:01:24;;;;;;;9.88;3.92;;;;;;;29.33;36.27;100625.06;4917078;29;20087;-60
2021/05/26 09:03:54;;;;;;;9.90;4.00;;;;;;;29.46;35.57;100627.16;4917910;29;20049;-58
2021/05/26 09:06:21;;;;;;;8.85;3.85;;;;;;;29.55;35.48;100621.03;4900343;29;20103;-56
2021/05/26 09:08:52;;;;;;;7.80;3.50;;;;;;;29.75;35.24;100607.09;4916808;29;20134;-58
2021/05/26 09:11:36;;;;;;;10.40;3.90;;;;;;;29.92;34.61;100609.16;4917268;29;20071;-55
2021/05/26 09:14:13;;;;;;;10.32;3.80;;;;;;;30.04;34.37;100598.44;4916449;29;20143;-56
2021/05/26 09:16:40;;;;;;;11.10;4.43;;;;;;;30.17;34.07;100602.53;4916609;29;20052;-56
2021/05/26 09:19:09;;;;;;;10.27;3.63;;;;;;;30.29;33.24;100607.91;4916756;29;20461;-58
2021/05/26 09:21:44;;;;;;;9.40;3.60;;;;;;;30.12;33.53;100603.78;4917080;29;20044;-58
2021/05/26 09:24:20;;;;;;;8.50;4.03;;;;;;;30.17;34.10;100602.53;4916710;29;20067;-58
2021/05/26 09:26:59;;;;;;;7.57;3.15;;;;;;;30.34;33.23;100601.72;4916736;29;20055;-57
2021/05/26 09:29:40;;;;;;;10.05;3.58;;;;;;;30.51;32.76;100599.19;4916541;29;20044;-60
2021/05/26 09:32:17;;;;;;;11.05;4.60;;;;;;;30.42;32.48;100594.69;4916525;29;20591;-57
2021/05/26 09:34:47;;;;;;;7.75;3.80;;;;;;;30.42;32.50;100596.75;4916741;29;20076;-57
2021/05/26 09:37:19;;;;;;;9.20;3.63;;;;;;;30.67;32.60;100593.81;4916822;29;20108;-57
2021/05/26 09:39:48;;;;;;;8.18;3.75;;;;;;;30.79;32.52;100592.53;4916528;29;20472;-54
2021/05/26 09:42:24;;;;;;;13.43;3.80;;;;;;;30.98;32.43;100591.22;4916419;29;20501;-58
2021/05/26 09:45:12;;;;;;;8.85;3.53;;;;;;;31.07;32.66;100583.72;4916072;29;20493;-56
2021/05/26 09:47:50;;;;;;;7.93;3.42;;;;;;;31.28;31.46;100594.34;4916365;29;20044;-57
2021/05/26 09:50:30;;;;;;;11.23;4.20;;;;;;;31.31;31.89;100581.13;4916873;29;20545;-59
2021/05/26 09:52:58;;;;;;;10.45;3.58;;;;;;;31.37;31.02;100588.94;4916295;29;20052;-58
2021/05/26 09:55:35;;;;;;;7.00;3.80;;;;;;;31.46;31.47;100585.59;4916785;29;20151;-57
2021/05/26 09:58:08;;;;;;;8.00;3.50;;;;;;;31.55;30.98;100576.44;4916657;29;20397;-57
2021/05/26 10:00:38;;;;;;;9.82;2.92;;;;;;;31.54;30.20;100557.50;4916241;29;20048;-57
2021/05/26 10:03:06;;;;;;;10.15;3.92;;;;;;;31.82;30.13;100593.97;4916324;29;20119;-57
2021/05/26 10:05:34;;;;;;;7.90;2.70;;;;;;;31.89;29.72;100591.03;4899734;29;20398;-55
2021/05/26 10:08:12;;;;;;;10.40;3.50;;;;;;;31.92;30.10;100577.81;4916104;29;20059;-55
2021/05/26 10:10:44;;;;;;;10.10;3.45;;;;;;;32.06;29.37;100580.56;4916100;29;20095;-55
2021/05/26 10:13:12;;;;;;;7.75;3.78;;;;;;;31.99;29.42;100593.00;4915868;29;20087;-56
2021/05/26 10:15:39;;;;;;;7.73;3.40;;;;;;;31.69;29.51;100590.75;4915133;29;20095;-55
2021/05/26 10:18:06;;;;;;;10.20;3.15;;;;;;;31.71;29.70;100590.34;4915960;29;20282;-56
2021/05/26 10:20:40;;;;;;;7.20;3.40;;;;;;;32.00;29.75;100588.03;4915813;29;20084;-57
2021/05/26 10:23:08;;;;;;;7.40;3.13;;;;;;;32.24;29.16;100586.16;4916241;29;20052;-56
2021/05/26 10:25:41;;;;;;;21.38;6.13;;;;;;;32.23;29.93;100584.53;4915843;29;20556;-56
2021/05/26 10:28:24;;;;;;;15.13;5.97;;;;;;;31.88;30.57;100568.38;4915936;29;20481;-56
2021/05/26 10:30:52;;;;;;;22.20;6.53;;;;;;;32.09;31.29;100582.59;4916114;29;20088;-56
2021/05/26 10:33:19;;;;;;;18.40;6.10;;;;;;;32.10;30.91;100584.22;4916162;29;20052;-54
2021/05/26 10:35:58;;;;;;;16.98;4.60;;;;;;;32.02;30.75;100586.38;4915771;29;20104;-54
2021/05/26 10:38:25;;;;;;;17.40;4.60;;;;;;;32.10;30.63;100587.13;4916830;29;20044;-56
2021/05/26 10:40:59;;;;;;;16.10;5.40;;;;;;;32.30;30.51;100579.47;4915783;29;20469;-56
2021/05/26 10:43:26;;;;;;;13.30;4.80;;;;;;;32.31;30.89;100575.38;4915877;29;20139;-55
2021/05/26 10:45:56;;;;;;;16.88;5.43;;;;;;;32.23;30.63;100582.44;4915870;29;20051;-56
2021/05/26 10:48:38;;;;;;;16.63;5.50;;;;;;;32.28;31.05;100582.00;4915726;29;20469;-55
2021/05/26 10:51:05;;;;;;;17.80;5.88;;;;;;;32.56;30.90;100586.66;4916505;29;20080;-57
2021/05/26 10:53:40;;;;;;;16.58;5.95;;;;;;;32.54;30.78;100568.91;4915786;29;20048;-56
2021/05/26 10:56:29;;;;;;;17.83;5.53;;;;;;;32.50;31.44;100581.78;4915938;29;20052;-56
2021/05/26 10:59:09;;;;;;;19.45;5.32;;;;;;;32.40;30.74;100553.78;4919146;29;20084;-55
2021/05/26 11:02:05;;;;;;;14.73;5.78;;;;;;;32.48;31.00;100572.72;4919487;29;20056;-57
2021/05/26 11:04:36;;;;;;;17.27;5.40;;;;;;;32.45;31.34;100559.97;4919014;29;20099;-54
2021/05/26 11:07:19;;;;;;;15.60;5.78;;;;;;;32.68;30.96;100570.81;4918996;29;20079;-55
2021/05/26 11:10:01;;;;;;;12.35;4.75;;;;;;;32.78;30.73;100569.03;4919245;29;20108;-51
2021/05/26 11:12:49;;;;;;;18.83;6.57;;;;;;;32.91;30.37;100563.50;4919053;29;20087;-54
2021/05/26 11:15:58;;;;;;;15.52;4.72;;;;;;;32.98;30.98;100566.31;4918745;29;20052;-66
2021/05/26 11:20:52;;;;;;;21.63;7.50;;;;;;;33.10;29.77;100564.94;4916050;29;20088;-60
2021/05/26 11:23:19;;;;;;;16.85;7.00;;;;;;;32.93;29.50;100558.94;4919051;29;20048;-62
2021/05/26 11:25:52;;;;;;;14.20;6.25;;;;;;;32.83;30.36;100548.31;4919079;29;20052;-61
2021/05/26 11:28:29;;;;;;;22.35;8.90;;;;;;;32.77;29.84;100550.88;4918720;29;20099;-61